sensor_id;sensor_type;location;lat;lon;timestamp;P1;durP1;ratioP1;P2;durP2;ratioP2
79706;SDS011;69200;53.612;-2.416;2023-05-07T00:00:58;13.68;;;5.47;;
79706;SDS011;69200;53.612;-2.416;2023-05-07T00:03:24;11.52;;;6.03;;
79706;SDS011;69200;53.612;-2.416;2023-05-07T00:05:51;13.05;;;6.40;;
79706;SDS011;69200;53.612;-2.416;2023-05-07T00:08:17;14.50;;;6.57;;
79706;SDS011;69200;53.612;-2.416;2023-05-07T00:10:43;13.68;;;6.50;;
79706;SDS011;69200;53.612;-2.416;2023-05-07T00:13:09;15.23;;;6.20;;
79706;SDS011;69200;53.612;-2.416;2023-05-07T00:15:34;14.32;;;7.53;;
79706;SDS011;69200;53.612;-2.416;2023-05-07T00:18:00;16.75;;;7.80;;
79706;SDS011;69200;53.612;-2.416;2023-05-07T00:20:25;13.38;;;6.82;;
79706;SDS011;69200;53.612;-2.416;2023-05-07T00:22:51;17.35;;;7.38;;
79706;SDS011;69200;53.612;-2.416;2023-05-07T00:25:16;17.05;;;7.68;;
79706;SDS011;69200;53.612;-2.416;2023-05-07T00:27:42;16.65;;;7.55;;
79706;SDS011;69200;53.612;-2.416;2023-05-07T00:30:08;16.73;;;7.97;;
79706;SDS011;69200;53.612;-2.416;2023-05-07T00:32:33;20.65;;;8.48;;
79706;SDS011;69200;53.612;-2.416;2023-05-07T00:34:59;15.98;;;8.32;;
79706;SDS011;69200;53.612;-2.416;2023-05-07T00:37:24;13.57;;;7.10;;
79706;SDS011;69200;53.612;-2.416;2023-05-07T00:39:50;15.38;;;6.53;;
79706;SDS011;69200;53.612;-2.416;2023-05-07T00:42:15;16.98;;;6.50;;
79706;SDS011;69200;53.612;-2.416;2023-05-07T00:44:41;15.95;;;5.93;;
79706;SDS011;69200;53.612;-2.416;2023-05-07T00:47:06;15.50;;;6.47;;
79706;SDS011;69200;53.612;-2.416;2023-05-07T00:49:37;14.88;;;6.95;;
79706;SDS011;69200;53.612;-2.416;2023-05-07T00:52:13;13.45;;;6.22;;
79706;SDS011;69200;53.612;-2.416;2023-05-07T00:54:40;13.55;;;6.53;;
79706;SDS011;69200;53.612;-2.416;2023-05-07T00:57:06;12.82;;;7.00;;
79706;SDS011;69200;53.612;-2.416;2023-05-07T00:59:33;12.55;;;5.68;;
79706;SDS011;69200;53.612;-2.416;2023-05-07T01:01:59;16.08;;;6.97;;
79706;SDS011;69200;53.612;-2.416;2023-05-07T01:04:25;14.93;;;7.28;;
79706;SDS011;69200;53.612;-2.416;2023-05-07T01:06:51;16.55;;;7.60;;
79706;SDS011;69200;53.612;-2.416;2023-05-07T01:09:18;14.90;;;7.50;;
79706;SDS011;69200;53.612;-2.416;2023-05-07T01:11:45;20.98;;;8.05;;
79706;SDS011;69200;53.612;-2.416;2023-05-07T01:14:11;17.88;;;7.80;;
79706;SDS011;69200;53.612;-2.416;2023-05-07T01:16:36;18.73;;;8.75;;
79706;SDS011;69200;53.612;-2.416;2023-05-07T01:19:02;22.45;;;8.57;;
79706;SDS011;69200;53.612;-2.416;2023-05-07T01:21:28;19.98;;;9.35;;
79706;SDS011;69200;53.612;-2.416;2023-05-07T01:23:58;18.65;;;8.35;;
79706;SDS011;69200;53.612;-2.416;2023-05-07T01:26:24;20.05;;;8.50;;
79706;SDS011;69200;53.612;-2.416;2023-05-07T01:28:49;21.20;;;8.68;;
79706;SDS011;69200;53.612;-2.416;2023-05-07T01:31:15;20.63;;;7.70;;
79706;SDS011;69200;53.612;-2.416;2023-05-07T01:33:42;20.17;;;9.10;;
79706;SDS011;69200;53.612;-2.416;2023-05-07T01:36:09;18.33;;;8.60;;
79706;SDS011;69200;53.612;-2.416;2023-05-07T01:38:37;20.45;;;8.15;;
79706;SDS011;69200;53.612;-2.416;2023-05-07T01:41:03;19.35;;;8.43;;
79706;SDS011;69200;53.612;-2.416;2023-05-07T01:43:29;19.13;;;8.60;;
79706;SDS011;69200;53.612;-2.416;2023-05-07T01:45:55;20.17;;;7.65;;
79706;SDS011;69200;53.612;-2.416;2023-05-07T01:48:22;17.17;;;8.23;;
79706;SDS011;69200;53.612;-2.416;2023-05-07T01:50:48;15.70;;;7.32;;
79706;SDS011;69200;53.612;-2.416;2023-05-07T01:53:14;18.35;;;8.02;;
79706;SDS011;69200;53.612;-2.416;2023-05-07T01:55:40;16.85;;;7.10;;
79706;SDS011;69200;53.612;-2.416;2023-05-07T01:58:05;12.60;;;5.78;;
79706;SDS011;69200;53.612;-2.416;2023-05-07T02:00:31;11.48;;;5.22;;
79706;SDS011;69200;53.612;-2.416;2023-05-07T02:02:56;9.52;;;4.45;;
79706;SDS011;69200;53.612;-2.416;2023-05-07T02:05:22;11.20;;;4.35;;
79706;SDS011;69200;53.612;-2.416;2023-05-07T02:07:48;9.05;;;4.43;;
79706;SDS011;69200;53.612;-2.416;2023-05-07T02:10:13;9.75;;;4.35;;
79706;SDS011;69200;53.612;-2.416;2023-05-07T02:12:38;9.05;;;4.40;;
79706;SDS011;69200;53.612;-2.416;2023-05-07T02:15:04;10.82;;;4.75;;
79706;SDS011;69200;53.612;-2.416;2023-05-07T02:17:30;9.48;;;4.85;;
79706;SDS011;69200;53.612;-2.416;2023-05-07T02:19:57;9.15;;;4.55;;
79706;SDS011;69200;53.612;-2.416;2023-05-07T02:22:23;9.93;;;4.85;;
79706;SDS011;69200;53.612;-2.416;2023-05-07T02:24:48;9.52;;;4.47;;
79706;SDS011;69200;53.612;-2.416;2023-05-07T02:27:14;10.68;;;4.70;;
79706;SDS011;69200;53.612;-2.416;2023-05-07T02:29:39;10.38;;;4.32;;
79706;SDS011;69200;53.612;-2.416;2023-05-07T02:32:05;12.70;;;5.47;;
79706;SDS011;69200;53.612;-2.416;2023-05-07T02:34:30;10.57;;;5.10;;
79706;SDS011;69200;53.612;-2.416;2023-05-07T02:36:55;11.73;;;5.47;;
79706;SDS011;69200;53.612;-2.416;2023-05-07T02:39:21;12.55;;;5.65;;
79706;SDS011;69200;53.612;-2.416;2023-05-07T02:41:46;14.07;;;6.00;;
79706;SDS011;69200;53.612;-2.416;2023-05-07T02:44:11;15.13;;;6.30;;
79706;SDS011;69200;53.612;-2.416;2023-05-07T02:46:37;14.13;;;6.03;;
79706;SDS011;69200;53.612;-2.416;2023-05-07T02:49:02;12.82;;;6.00;;
79706;SDS011;69200;53.612;-2.416;2023-05-07T02:51:29;15.52;;;6.47;;
79706;SDS011;69200;53.612;-2.416;2023-05-07T02:53:55;13.32;;;6.20;;
79706;SDS011;69200;53.612;-2.416;2023-05-07T02:56:20;16.70;;;6.82;;
79706;SDS011;69200;53.612;-2.416;2023-05-07T02:58:46;13.75;;;6.25;;
79706;SDS011;69200;53.612;-2.416;2023-05-07T03:01:12;14.07;;;6.15;;
79706;SDS011;69200;53.612;-2.416;2023-05-07T03:03:39;13.88;;;6.32;;
79706;SDS011;69200;53.612;-2.416;2023-05-07T03:06:04;13.25;;;6.20;;
79706;SDS011;69200;53.612;-2.416;2023-05-07T03:08:30;13.93;;;5.90;;
79706;SDS011;69200;53.612;-2.416;2023-05-07T03:10:55;11.68;;;4.80;;
79706;SDS011;69200;53.612;-2.416;2023-05-07T03:13:21;13.82;;;6.38;;
79706;SDS011;69200;53.612;-2.416;2023-05-07T03:15:46;14.32;;;5.82;;
79706;SDS011;69200;53.612;-2.416;2023-05-07T03:18:12;14.93;;;6.13;;
79706;SDS011;69200;53.612;-2.416;2023-05-07T03:20:37;17.23;;;7.53;;
79706;SDS011;69200;53.612;-2.416;2023-05-07T03:23:03;17.70;;;7.22;;
79706;SDS011;69200;53.612;-2.416;2023-05-07T03:25:28;17.35;;;7.00;;
79706;SDS011;69200;53.612;-2.416;2023-05-07T03:27:55;15.68;;;7.28;;
79706;SDS011;69200;53.612;-2.416;2023-05-07T03:30:21;15.48;;;7.10;;
79706;SDS011;69200;53.612;-2.416;2023-05-07T03:32:46;18.05;;;7.25;;
79706;SDS011;69200;53.612;-2.416;2023-05-07T03:35:11;16.33;;;7.72;;
79706;SDS011;69200;53.612;-2.416;2023-05-07T03:37:37;15.43;;;6.82;;
79706;SDS011;69200;53.612;-2.416;2023-05-07T03:40:03;14.25;;;6.32;;
79706;SDS011;69200;53.612;-2.416;2023-05-07T03:42:30;16.38;;;7.03;;
79706;SDS011;69200;53.612;-2.416;2023-05-07T03:44:55;13.18;;;6.28;;
79706;SDS011;69200;53.612;-2.416;2023-05-07T03:47:21;19.13;;;7.15;;
79706;SDS011;69200;53.612;-2.416;2023-05-07T03:49:46;14.07;;;5.80;;
79706;SDS011;69200;53.612;-2.416;2023-05-07T03:52:11;16.08;;;6.82;;
79706;SDS011;69200;53.612;-2.416;2023-05-07T03:54:37;15.35;;;6.78;;
79706;SDS011;69200;53.612;-2.416;2023-05-07T03:57:02;17.48;;;6.38;;
79706;SDS011;69200;53.612;-2.416;2023-05-07T03:59:27;17.00;;;7.47;;
79706;SDS011;69200;53.612;-2.416;2023-05-07T04:01:53;17.45;;;7.82;;
79706;SDS011;69200;53.612;-2.416;2023-05-07T04:04:18;18.85;;;7.82;;
79706;SDS011;69200;53.612;-2.416;2023-05-07T04:06:43;17.67;;;7.65;;
79706;SDS011;69200;53.612;-2.416;2023-05-07T04:09:09;18.75;;;8.60;;
79706;SDS011;69200;53.612;-2.416;2023-05-07T04:11:35;21.65;;;9.15;;
79706;SDS011;69200;53.612;-2.416;2023-05-07T04:14:01;19.30;;;8.63;;
79706;SDS011;69200;53.612;-2.416;2023-05-07T04:16:26;16.33;;;8.32;;
79706;SDS011;69200;53.612;-2.416;2023-05-07T04:18:52;17.65;;;9.00;;
79706;SDS011;69200;53.612;-2.416;2023-05-07T04:21:18;19.05;;;8.50;;
79706;SDS011;69200;53.612;-2.416;2023-05-07T04:23:46;17.92;;;8.50;;
79706;SDS011;69200;53.612;-2.416;2023-05-07T04:26:12;17.73;;;7.78;;
79706;SDS011;69200;53.612;-2.416;2023-05-07T04:28:38;20.15;;;9.50;;
79706;SDS011;69200;53.612;-2.416;2023-05-07T04:31:04;20.65;;;9.35;;
79706;SDS011;69200;53.612;-2.416;2023-05-07T04:33:30;17.70;;;8.05;;
79706;SDS011;69200;53.612;-2.416;2023-05-07T04:35:56;16.45;;;7.97;;
79706;SDS011;69200;53.612;-2.416;2023-05-07T04:38:21;18.88;;;8.95;;
79706;SDS011;69200;53.612;-2.416;2023-05-07T04:40:48;20.30;;;9.60;;
79706;SDS011;69200;53.612;-2.416;2023-05-07T04:43:14;22.60;;;9.25;;
79706;SDS011;69200;53.612;-2.416;2023-05-07T04:45:39;20.23;;;9.10;;
79706;SDS011;69200;53.612;-2.416;2023-05-07T04:48:06;22.40;;;9.70;;
79706;SDS011;69200;53.612;-2.416;2023-05-07T04:50:32;20.35;;;8.80;;
79706;SDS011;69200;53.612;-2.416;2023-05-07T04:52:57;20.92;;;9.77;;
79706;SDS011;69200;53.612;-2.416;2023-05-07T04:55:23;27.63;;;10.50;;
79706;SDS011;69200;53.612;-2.416;2023-05-07T04:57:48;23.17;;;10.73;;
79706;SDS011;69200;53.612;-2.416;2023-05-07T05:00:14;23.50;;;9.95;;
79706;SDS011;69200;53.612;-2.416;2023-05-07T05:02:40;26.75;;;11.18;;
79706;SDS011;69200;53.612;-2.416;2023-05-07T05:05:06;32.72;;;11.68;;
79706;SDS011;69200;53.612;-2.416;2023-05-07T05:07:32;26.65;;;11.00;;
79706;SDS011;69200;53.612;-2.416;2023-05-07T05:09:57;25.92;;;10.30;;
79706;SDS011;69200;53.612;-2.416;2023-05-07T05:12:23;24.38;;;10.35;;
79706;SDS011;69200;53.612;-2.416;2023-05-07T05:14:48;25.17;;;10.07;;
79706;SDS011;69200;53.612;-2.416;2023-05-07T05:17:14;23.98;;;10.07;;
79706;SDS011;69200;53.612;-2.416;2023-05-07T05:19:39;22.77;;;9.48;;
79706;SDS011;69200;53.612;-2.416;2023-05-07T05:22:05;25.50;;;10.55;;
79706;SDS011;69200;53.612;-2.416;2023-05-07T05:24:30;29.23;;;11.00;;
79706;SDS011;69200;53.612;-2.416;2023-05-07T05:26:56;26.65;;;10.10;;
79706;SDS011;69200;53.612;-2.416;2023-05-07T05:29:21;29.38;;;10.98;;
79706;SDS011;69200;53.612;-2.416;2023-05-07T05:31:47;25.70;;;9.65;;
79706;SDS011;69200;53.612;-2.416;2023-05-07T05:34:13;28.20;;;10.13;;
79706;SDS011;69200;53.612;-2.416;2023-05-07T05:36:38;23.92;;;10.02;;
79706;SDS011;69200;53.612;-2.416;2023-05-07T05:39:03;28.88;;;10.90;;
79706;SDS011;69200;53.612;-2.416;2023-05-07T05:41:29;22.90;;;9.52;;
79706;SDS011;69200;53.612;-2.416;2023-05-07T05:43:55;21.15;;;9.23;;
79706;SDS011;69200;53.612;-2.416;2023-05-07T05:46:20;20.55;;;9.38;;
79706;SDS011;69200;53.612;-2.416;2023-05-07T05:48:46;25.73;;;9.73;;
79706;SDS011;69200;53.612;-2.416;2023-05-07T05:51:11;21.00;;;8.63;;
79706;SDS011;69200;53.612;-2.416;2023-05-07T05:53:37;22.05;;;8.82;;
79706;SDS011;69200;53.612;-2.416;2023-05-07T05:56:02;26.40;;;9.43;;
79706;SDS011;69200;53.612;-2.416;2023-05-07T05:58:28;23.88;;;8.77;;
79706;SDS011;69200;53.612;-2.416;2023-05-07T06:00:53;26.02;;;9.43;;
79706;SDS011;69200;53.612;-2.416;2023-05-07T06:03:19;24.35;;;8.85;;
79706;SDS011;69200;53.612;-2.416;2023-05-07T06:05:44;23.42;;;8.80;;
79706;SDS011;69200;53.612;-2.416;2023-05-07T06:08:10;24.70;;;9.38;;
79706;SDS011;69200;53.612;-2.416;2023-05-07T06:10:36;22.70;;;9.75;;
79706;SDS011;69200;53.612;-2.416;2023-05-07T06:13:02;21.20;;;9.27;;
79706;SDS011;69200;53.612;-2.416;2023-05-07T06:15:27;19.48;;;8.65;;
79706;SDS011;69200;53.612;-2.416;2023-05-07T06:17:53;19.10;;;8.18;;
79706;SDS011;69200;53.612;-2.416;2023-05-07T06:20:20;19.83;;;8.13;;
79706;SDS011;69200;53.612;-2.416;2023-05-07T06:22:46;20.63;;;8.18;;
79706;SDS011;69200;53.612;-2.416;2023-05-07T06:25:11;18.55;;;7.00;;
79706;SDS011;69200;53.612;-2.416;2023-05-07T06:27:36;23.48;;;6.90;;
79706;SDS011;69200;53.612;-2.416;2023-05-07T06:30:02;19.20;;;7.07;;
79706;SDS011;69200;53.612;-2.416;2023-05-07T06:32:28;17.10;;;6.72;;
79706;SDS011;69200;53.612;-2.416;2023-05-07T06:34:53;15.10;;;5.80;;
79706;SDS011;69200;53.612;-2.416;2023-05-07T06:37:18;15.07;;;6.00;;
79706;SDS011;69200;53.612;-2.416;2023-05-07T06:39:44;15.98;;;6.20;;
79706;SDS011;69200;53.612;-2.416;2023-05-07T06:42:09;18.25;;;5.30;;
79706;SDS011;69200;53.612;-2.416;2023-05-07T06:44:34;13.52;;;5.07;;
79706;SDS011;69200;53.612;-2.416;2023-05-07T06:47:00;12.60;;;5.20;;
79706;SDS011;69200;53.612;-2.416;2023-05-07T06:49:25;12.68;;;4.63;;
79706;SDS011;69200;53.612;-2.416;2023-05-07T06:51:51;11.27;;;3.58;;
79706;SDS011;69200;53.612;-2.416;2023-05-07T06:54:16;8.10;;;2.92;;
79706;SDS011;69200;53.612;-2.416;2023-05-07T06:56:41;10.15;;;2.83;;
79706;SDS011;69200;53.612;-2.416;2023-05-07T06:59:07;13.02;;;3.60;;
79706;SDS011;69200;53.612;-2.416;2023-05-07T07:01:33;10.07;;;2.78;;
79706;SDS011;69200;53.612;-2.416;2023-05-07T07:03:58;9.68;;;2.90;;
79706;SDS011;69200;53.612;-2.416;2023-05-07T07:06:23;11.05;;;3.42;;
79706;SDS011;69200;53.612;-2.416;2023-05-07T07:08:49;9.48;;;2.55;;
79706;SDS011;69200;53.612;-2.416;2023-05-07T07:11:14;9.73;;;2.42;;
79706;SDS011;69200;53.612;-2.416;2023-05-07T07:13:40;9.20;;;3.17;;
79706;SDS011;69200;53.612;-2.416;2023-05-07T07:16:06;9.93;;;2.90;;
79706;SDS011;69200;53.612;-2.416;2023-05-07T07:18:31;9.88;;;3.10;;
79706;SDS011;69200;53.612;-2.416;2023-05-07T07:20:57;13.45;;;3.20;;
79706;SDS011;69200;53.612;-2.416;2023-05-07T07:23:23;9.55;;;3.13;;
79706;SDS011;69200;53.612;-2.416;2023-05-07T07:25:48;7.68;;;2.60;;
79706;SDS011;69200;53.612;-2.416;2023-05-07T07:28:13;8.45;;;2.72;;
79706;SDS011;69200;53.612;-2.416;2023-05-07T07:30:39;10.23;;;2.78;;
79706;SDS011;69200;53.612;-2.416;2023-05-07T07:33:04;9.93;;;2.60;;
79706;SDS011;69200;53.612;-2.416;2023-05-07T07:35:30;8.90;;;2.33;;
79706;SDS011;69200;53.612;-2.416;2023-05-07T07:37:56;9.75;;;2.63;;
79706;SDS011;69200;53.612;-2.416;2023-05-07T07:40:22;11.30;;;3.08;;
79706;SDS011;69200;53.612;-2.416;2023-05-07T07:42:48;8.73;;;2.80;;
79706;SDS011;69200;53.612;-2.416;2023-05-07T07:45:13;8.90;;;2.88;;
79706;SDS011;69200;53.612;-2.416;2023-05-07T07:47:39;11.07;;;3.10;;
79706;SDS011;69200;53.612;-2.416;2023-05-07T07:50:05;8.80;;;2.60;;
79706;SDS011;69200;53.612;-2.416;2023-05-07T07:52:31;7.88;;;2.50;;
79706;SDS011;69200;53.612;-2.416;2023-05-07T07:54:56;9.50;;;1.98;;
79706;SDS011;69200;53.612;-2.416;2023-05-07T07:57:22;9.30;;;2.20;;
79706;SDS011;69200;53.612;-2.416;2023-05-07T07:59:47;10.52;;;2.58;;
79706;SDS011;69200;53.612;-2.416;2023-05-07T08:02:12;10.35;;;2.38;;
79706;SDS011;69200;53.612;-2.416;2023-05-07T08:04:38;12.35;;;2.53;;
79706;SDS011;69200;53.612;-2.416;2023-05-07T08:07:03;8.52;;;2.05;;
79706;SDS011;69200;53.612;-2.416;2023-05-07T08:09:29;6.80;;;2.10;;
79706;SDS011;69200;53.612;-2.416;2023-05-07T08:11:54;7.88;;;2.13;;
79706;SDS011;69200;53.612;-2.416;2023-05-07T08:14:19;8.10;;;2.00;;
79706;SDS011;69200;53.612;-2.416;2023-05-07T08:16:45;6.53;;;2.00;;
79706;SDS011;69200;53.612;-2.416;2023-05-07T08:19:10;10.45;;;2.63;;
79706;SDS011;69200;53.612;-2.416;2023-05-07T08:21:38;5.88;;;1.75;;
79706;SDS011;69200;53.612;-2.416;2023-05-07T08:24:04;6.15;;;1.48;;
79706;SDS011;69200;53.612;-2.416;2023-05-07T08:26:29;9.48;;;2.22;;
79706;SDS011;69200;53.612;-2.416;2023-05-07T08:28:55;9.35;;;2.00;;
79706;SDS011;69200;53.612;-2.416;2023-05-07T08:31:20;7.10;;;2.05;;
79706;SDS011;69200;53.612;-2.416;2023-05-07T08:33:46;6.43;;;1.83;;
79706;SDS011;69200;53.612;-2.416;2023-05-07T08:36:11;8.88;;;2.00;;
79706;SDS011;69200;53.612;-2.416;2023-05-07T08:38:36;9.18;;;2.42;;
79706;SDS011;69200;53.612;-2.416;2023-05-07T08:41:02;6.70;;;1.80;;
79706;SDS011;69200;53.612;-2.416;2023-05-07T08:43:27;8.02;;;2.10;;
79706;SDS011;69200;53.612;-2.416;2023-05-07T08:45:53;8.65;;;1.95;;
79706;SDS011;69200;53.612;-2.416;2023-05-07T08:48:21;7.32;;;1.67;;
79706;SDS011;69200;53.612;-2.416;2023-05-07T08:50:50;10.88;;;2.50;;
79706;SDS011;69200;53.612;-2.416;2023-05-07T08:53:16;6.05;;;1.83;;
79706;SDS011;69200;53.612;-2.416;2023-05-07T08:55:42;8.45;;;2.00;;
79706;SDS011;69200;53.612;-2.416;2023-05-07T08:58:08;6.85;;;2.28;;
79706;SDS011;69200;53.612;-2.416;2023-05-07T09:00:33;10.45;;;2.15;;
79706;SDS011;69200;53.612;-2.416;2023-05-07T09:03:01;7.00;;;1.92;;
79706;SDS011;69200;53.612;-2.416;2023-05-07T09:05:26;6.07;;;1.90;;
79706;SDS011;69200;53.612;-2.416;2023-05-07T09:07:52;7.85;;;2.33;;
79706;SDS011;69200;53.612;-2.416;2023-05-07T09:10:17;7.15;;;2.10;;
79706;SDS011;69200;53.612;-2.416;2023-05-07T09:12:43;9.20;;;2.60;;
79706;SDS011;69200;53.612;-2.416;2023-05-07T09:15:08;7.32;;;2.20;;
79706;SDS011;69200;53.612;-2.416;2023-05-07T09:17:34;9.35;;;2.45;;
79706;SDS011;69200;53.612;-2.416;2023-05-07T09:20:03;7.63;;;2.03;;
79706;SDS011;69200;53.612;-2.416;2023-05-07T09:22:31;8.38;;;2.20;;
79706;SDS011;69200;53.612;-2.416;2023-05-07T09:25:02;7.32;;;2.25;;
79706;SDS011;69200;53.612;-2.416;2023-05-07T09:27:27;9.55;;;2.50;;
79706;SDS011;69200;53.612;-2.416;2023-05-07T09:29:53;8.80;;;2.55;;
79706;SDS011;69200;53.612;-2.416;2023-05-07T09:32:18;8.88;;;2.58;;
79706;SDS011;69200;53.612;-2.416;2023-05-07T09:34:43;7.95;;;2.15;;
79706;SDS011;69200;53.612;-2.416;2023-05-07T09:37:10;8.77;;;2.58;;
79706;SDS011;69200;53.612;-2.416;2023-05-07T09:39:47;6.43;;;2.40;;
79706;SDS011;69200;53.612;-2.416;2023-05-07T09:42:14;7.25;;;2.00;;
79706;SDS011;69200;53.612;-2.416;2023-05-07T09:44:40;8.23;;;2.22;;
79706;SDS011;69200;53.612;-2.416;2023-05-07T09:47:06;8.50;;;2.15;;
79706;SDS011;69200;53.612;-2.416;2023-05-07T09:49:36;8.27;;;2.50;;
79706;SDS011;69200;53.612;-2.416;2023-05-07T09:52:05;7.53;;;2.10;;
79706;SDS011;69200;53.612;-2.416;2023-05-07T09:54:33;9.77;;;2.00;;
79706;SDS011;69200;53.612;-2.416;2023-05-07T09:57:02;7.60;;;2.00;;
79706;SDS011;69200;53.612;-2.416;2023-05-07T09:59:29;8.30;;;2.50;;
79706;SDS011;69200;53.612;-2.416;2023-05-07T10:01:59;6.82;;;2.20;;
79706;SDS011;69200;53.612;-2.416;2023-05-07T10:04:26;9.82;;;2.60;;
79706;SDS011;69200;53.612;-2.416;2023-05-07T10:06:52;8.82;;;2.28;;
79706;SDS011;69200;53.612;-2.416;2023-05-07T10:09:18;7.72;;;2.00;;
79706;SDS011;69200;53.612;-2.416;2023-05-07T10:11:44;6.45;;;1.77;;
79706;SDS011;69200;53.612;-2.416;2023-05-07T10:14:10;7.60;;;1.75;;
79706;SDS011;69200;53.612;-2.416;2023-05-07T10:16:36;7.88;;;1.77;;
79706;SDS011;69200;53.612;-2.416;2023-05-07T10:19:06;7.15;;;1.70;;
79706;SDS011;69200;53.612;-2.416;2023-05-07T10:21:37;7.00;;;1.60;;
79706;SDS011;69200;53.612;-2.416;2023-05-07T10:24:26;4.65;;;1.50;;
79706;SDS011;69200;53.612;-2.416;2023-05-07T10:26:54;8.43;;;1.98;;
79706;SDS011;69200;53.612;-2.416;2023-05-07T10:29:25;9.10;;;1.75;;
79706;SDS011;69200;53.612;-2.416;2023-05-07T10:34:45;6.75;;;1.80;;
79706;SDS011;69200;53.612;-2.416;2023-05-07T10:37:13;4.93;;;1.73;;
79706;SDS011;69200;53.612;-2.416;2023-05-07T10:39:40;6.32;;;1.90;;
79706;SDS011;69200;53.612;-2.416;2023-05-07T10:42:13;5.85;;;1.90;;
79706;SDS011;69200;53.612;-2.416;2023-05-07T10:44:39;7.05;;;1.98;;
79706;SDS011;69200;53.612;-2.416;2023-05-07T10:47:12;7.65;;;2.03;;
79706;SDS011;69200;53.612;-2.416;2023-05-07T10:52:11;5.38;;;2.15;;
79706;SDS011;69200;53.612;-2.416;2023-05-07T10:54:43;4.65;;;1.60;;
79706;SDS011;69200;53.612;-2.416;2023-05-07T10:59:56;6.65;;;1.52;;
79706;SDS011;69200;53.612;-2.416;2023-05-07T11:02:22;10.00;;;2.03;;
79706;SDS011;69200;53.612;-2.416;2023-05-07T11:07:43;6.50;;;1.88;;
79706;SDS011;69200;53.612;-2.416;2023-05-07T11:10:20;6.68;;;1.73;;
79706;SDS011;69200;53.612;-2.416;2023-05-07T11:12:46;5.82;;;1.90;;
79706;SDS011;69200;53.612;-2.416;2023-05-07T11:15:12;7.15;;;1.85;;
79706;SDS011;69200;53.612;-2.416;2023-05-07T11:20:19;7.07;;;1.95;;
79706;SDS011;69200;53.612;-2.416;2023-05-07T11:22:45;8.10;;;1.90;;
79706;SDS011;69200;53.612;-2.416;2023-05-07T11:25:11;8.52;;;2.85;;
79706;SDS011;69200;53.612;-2.416;2023-05-07T11:27:43;9.18;;;2.00;;
79706;SDS011;69200;53.612;-2.416;2023-05-07T11:30:09;6.45;;;2.03;;
79706;SDS011;69200;53.612;-2.416;2023-05-07T11:32:35;5.07;;;1.60;;
79706;SDS011;69200;53.612;-2.416;2023-05-07T11:35:01;6.55;;;1.77;;
79706;SDS011;69200;53.612;-2.416;2023-05-07T11:37:27;7.63;;;3.78;;
79706;SDS011;69200;53.612;-2.416;2023-05-07T11:42:46;5.35;;;2.55;;
79706;SDS011;69200;53.612;-2.416;2023-05-07T11:45:14;43.90;;;23.92;;
79706;SDS011;69200;53.612;-2.416;2023-05-07T11:47:50;7.75;;;3.60;;
79706;SDS011;69200;53.612;-2.416;2023-05-07T11:50:15;5.78;;;1.50;;
79706;SDS011;69200;53.612;-2.416;2023-05-07T11:52:49;4.75;;;1.70;;
79706;SDS011;69200;53.612;-2.416;2023-05-07T11:55:17;5.85;;;2.40;;
79706;SDS011;69200;53.612;-2.416;2023-05-07T11:57:43;7.10;;;1.83;;
79706;SDS011;69200;53.612;-2.416;2023-05-07T12:00:09;5.38;;;2.22;;
79706;SDS011;69200;53.612;-2.416;2023-05-07T12:02:35;10.68;;;2.42;;
79706;SDS011;69200;53.612;-2.416;2023-05-07T12:05:01;7.03;;;1.77;;
79706;SDS011;69200;53.612;-2.416;2023-05-07T12:07:27;8.70;;;2.00;;
79706;SDS011;69200;53.612;-2.416;2023-05-07T12:09:53;7.00;;;1.80;;
79706;SDS011;69200;53.612;-2.416;2023-05-07T12:12:18;6.25;;;2.10;;
79706;SDS011;69200;53.612;-2.416;2023-05-07T12:14:44;9.18;;;2.65;;
79706;SDS011;69200;53.612;-2.416;2023-05-07T12:17:11;6.28;;;1.60;;
79706;SDS011;69200;53.612;-2.416;2023-05-07T12:19:38;5.55;;;1.60;;
79706;SDS011;69200;53.612;-2.416;2023-05-07T12:22:09;7.50;;;1.95;;
79706;SDS011;69200;53.612;-2.416;2023-05-07T12:24:44;5.47;;;1.75;;
79706;SDS011;69200;53.612;-2.416;2023-05-07T12:27:11;9.02;;;4.70;;
79706;SDS011;69200;53.612;-2.416;2023-05-07T12:29:36;5.50;;;2.05;;
79706;SDS011;69200;53.612;-2.416;2023-05-07T12:32:04;9.55;;;4.50;;
79706;SDS011;69200;53.612;-2.416;2023-05-07T12:34:31;7.22;;;2.85;;
79706;SDS011;69200;53.612;-2.416;2023-05-07T12:36:57;8.57;;;3.70;;
79706;SDS011;69200;53.612;-2.416;2023-05-07T12:39:26;7.28;;;1.83;;
79706;SDS011;69200;53.612;-2.416;2023-05-07T12:41:53;5.10;;;1.73;;
79706;SDS011;69200;53.612;-2.416;2023-05-07T12:44:24;5.00;;;1.85;;
79706;SDS011;69200;53.612;-2.416;2023-05-07T12:46:53;5.43;;;2.08;;
79706;SDS011;69200;53.612;-2.416;2023-05-07T12:49:19;7.55;;;2.78;;
79706;SDS011;69200;53.612;-2.416;2023-05-07T12:51:46;7.55;;;1.85;;
79706;SDS011;69200;53.612;-2.416;2023-05-07T12:54:13;17.25;;;8.60;;
79706;SDS011;69200;53.612;-2.416;2023-05-07T12:56:39;8.88;;;4.63;;
79706;SDS011;69200;53.612;-2.416;2023-05-07T12:59:04;5.25;;;1.70;;
79706;SDS011;69200;53.612;-2.416;2023-05-07T13:01:30;7.35;;;2.22;;
79706;SDS011;69200;53.612;-2.416;2023-05-07T13:03:57;7.20;;;2.15;;
79706;SDS011;69200;53.612;-2.416;2023-05-07T13:06:25;8.23;;;2.17;;
79706;SDS011;69200;53.612;-2.416;2023-05-07T13:08:51;10.90;;;2.22;;
79706;SDS011;69200;53.612;-2.416;2023-05-07T13:11:16;8.15;;;1.90;;
79706;SDS011;69200;53.612;-2.416;2023-05-07T13:13:42;15.60;;;7.32;;
79706;SDS011;69200;53.612;-2.416;2023-05-07T13:16:08;6.07;;;1.98;;
79706;SDS011;69200;53.612;-2.416;2023-05-07T13:18:35;11.55;;;4.93;;
79706;SDS011;69200;53.612;-2.416;2023-05-07T13:21:02;28.65;;;16.35;;
79706;SDS011;69200;53.612;-2.416;2023-05-07T13:23:28;7.22;;;2.40;;
79706;SDS011;69200;53.612;-2.416;2023-05-07T13:25:54;8.00;;;2.30;;
79706;SDS011;69200;53.612;-2.416;2023-05-07T13:28:20;9.38;;;1.90;;
79706;SDS011;69200;53.612;-2.416;2023-05-07T13:30:46;26.00;;;14.80;;
79706;SDS011;69200;53.612;-2.416;2023-05-07T13:33:12;9.70;;;6.15;;
79706;SDS011;69200;53.612;-2.416;2023-05-07T13:35:37;8.20;;;2.60;;
79706;SDS011;69200;53.612;-2.416;2023-05-07T13:38:03;5.65;;;2.25;;
79706;SDS011;69200;53.612;-2.416;2023-05-07T13:40:28;6.18;;;1.90;;
79706;SDS011;69200;53.612;-2.416;2023-05-07T13:42:56;6.05;;;2.35;;
79706;SDS011;69200;53.612;-2.416;2023-05-07T13:45:23;5.88;;;1.80;;
79706;SDS011;69200;53.612;-2.416;2023-05-07T13:47:50;6.63;;;2.17;;
79706;SDS011;69200;53.612;-2.416;2023-05-07T13:50:16;6.22;;;2.08;;
79706;SDS011;69200;53.612;-2.416;2023-05-07T13:52:42;8.32;;;3.67;;
79706;SDS011;69200;53.612;-2.416;2023-05-07T13:55:10;6.88;;;2.22;;
79706;SDS011;69200;53.612;-2.416;2023-05-07T13:57:36;9.52;;;4.25;;
79706;SDS011;69200;53.612;-2.416;2023-05-07T14:00:02;9.68;;;4.10;;
79706;SDS011;69200;53.612;-2.416;2023-05-07T14:02:30;10.13;;;3.05;;
79706;SDS011;69200;53.612;-2.416;2023-05-07T14:04:56;42.25;;;17.70;;
79706;SDS011;69200;53.612;-2.416;2023-05-07T14:07:21;9.93;;;2.47;;
79706;SDS011;69200;53.612;-2.416;2023-05-07T14:09:47;6.55;;;2.25;;
79706;SDS011;69200;53.612;-2.416;2023-05-07T14:12:12;7.28;;;2.40;;
79706;SDS011;69200;53.612;-2.416;2023-05-07T14:14:37;5.45;;;2.30;;
79706;SDS011;69200;53.612;-2.416;2023-05-07T14:17:03;20.35;;;12.20;;
79706;SDS011;69200;53.612;-2.416;2023-05-07T14:19:28;6.13;;;3.40;;
79706;SDS011;69200;53.612;-2.416;2023-05-07T14:21:53;27.60;;;19.00;;
79706;SDS011;69200;53.612;-2.416;2023-05-07T14:24:19;8.10;;;3.10;;
79706;SDS011;69200;53.612;-2.416;2023-05-07T14:26:45;11.15;;;3.75;;
79706;SDS011;69200;53.612;-2.416;2023-05-07T14:29:10;21.90;;;4.63;;
79706;SDS011;69200;53.612;-2.416;2023-05-07T14:31:36;8.15;;;3.38;;
79706;SDS011;69200;53.612;-2.416;2023-05-07T14:34:01;8.65;;;3.38;;
79706;SDS011;69200;53.612;-2.416;2023-05-07T14:36:27;6.53;;;3.30;;